sensor_id;sensor_type;location;lat;lon;timestamp;pressure;altitude;pressure_sealevel;temperature;humidity
30618;BME280;17384;51.214;9.202;2023-11-21T00:02:17;98020.69;;;6.12;100.00
30618;BME280;17384;51.214;9.202;2023-11-21T00:04:43;98017.19;;;6.18;100.00
30618;BME280;17384;51.214;9.202;2023-11-21T00:07:08;98026.50;;;6.22;100.00
30618;BME280;17384;51.214;9.202;2023-11-21T00:09:34;98024.84;;;6.34;100.00
30618;BME280;17384;51.214;9.202;2023-11-21T00:12:00;98018.84;;;6.19;100.00
30618;BME280;17384;51.214;9.202;2023-11-21T00:14:25;98035.59;;;6.08;100.00
30618;BME280;17384;51.214;9.202;2023-11-21T00:16:51;98028.56;;;6.07;100.00
30618;BME280;17384;51.214;9.202;2023-11-21T00:19:16;98027.31;;;6.03;100.00
30618;BME280;17384;51.214;9.202;2023-11-21T00:21:42;98031.47;;;6.12;100.00
30618;BME280;17384;51.214;9.202;2023-11-21T00:24:10;98026.06;;;6.12;100.00
30618;BME280;17384;51.214;9.202;2023-11-21T00:26:35;98028.56;;;6.07;100.00
30618;BME280;17384;51.214;9.202;2023-11-21T00:29:03;98040.56;;;6.11;100.00
30618;BME280;17384;51.214;9.202;2023-11-21T00:31:28;98034.16;;;6.12;100.00
30618;BME280;17384;51.214;9.202;2023-11-21T00:33:54;98030.03;;;6.16;100.00
30618;BME280;17384;51.214;9.202;2023-11-21T00:36:20;98027.94;;;6.18;100.00
30618;BME280;17384;51.214;9.202;2023-11-21T00:38:46;98034.97;;;6.13;100.00
30618;BME280;17384;51.214;9.202;2023-11-21T00:41:13;98032.28;;;6.13;100.00
30618;BME280;17384;51.214;9.202;2023-11-21T00:43:39;98024.00;;;6.14;100.00
30618;BME280;17384;51.214;9.202;2023-11-21T00:46:05;98028.97;;;6.10;100.00
30618;BME280;17384;51.214;9.202;2023-11-21T00:48:33;98020.88;;;6.04;100.00
30618;BME280;17384;51.214;9.202;2023-11-21T00:50:58;98026.06;;;6.05;100.00
30618;BME280;17384;51.214;9.202;2023-11-21T00:53:23;98031.44;;;6.05;100.00
30618;BME280;17384;51.214;9.202;2023-11-21T00:55:49;98033.97;;;6.00;100.00
30618;BME280;17384;51.214;9.202;2023-11-21T00:58:14;98032.69;;;6.03;100.00
30618;BME280;17384;51.214;9.202;2023-11-21T01:00:40;98024.59;;;6.03;100.00
30618;BME280;17384;51.214;9.202;2023-11-21T01:03:05;98034.34;;;6.10;100.00
30618;BME280;17384;51.214;9.202;2023-11-21T01:05:33;98043.88;;;6.06;100.00
30618;BME280;17384;51.214;9.202;2023-11-21T01:07:59;98038.91;;;6.03;100.00
30618;BME280;17384;51.214;9.202;2023-11-21T01:10:25;98039.34;;;6.00;100.00
30618;BME280;17384;51.214;9.202;2023-11-21T01:12:50;98044.72;;;5.94;100.00
30618;BME280;17384;51.214;9.202;2023-11-21T01:15:16;98047.19;;;5.95;100.00
30618;BME280;17384;51.214;9.202;2023-11-21T01:17:41;98049.69;;;5.97;100.00
30618;BME280;17384;51.214;9.202;2023-11-21T01:20:08;98041.38;;;5.92;100.00
30618;BME280;17384;51.214;9.202;2023-11-21T01:22:38;98048.38;;;5.86;100.00
30618;BME280;17384;51.214;9.202;2023-11-21T01:25:04;98056.25;;;5.88;100.00
30618;BME280;17384;51.214;9.202;2023-11-21T01:27:33;98048.59;;;5.85;100.00
30618;BME280;17384;51.214;9.202;2023-11-21T01:29:59;98057.94;;;5.89;100.00
30618;BME280;17384;51.214;9.202;2023-11-21T01:32:24;98046.91;;;5.84;100.00
30618;BME280;17384;51.214;9.202;2023-11-21T01:34:50;98052.91;;;5.79;100.00
30618;BME280;17384;51.214;9.202;2023-11-21T01:37:16;98054.94;;;5.64;100.00
30618;BME280;17384;51.214;9.202;2023-11-21T01:39:45;98067.19;;;5.66;100.00
30618;BME280;17384;51.214;9.202;2023-11-21T01:42:12;98066.47;;;5.51;100.00
30618;BME280;17384;51.214;9.202;2023-11-21T01:44:38;98066.88;;;5.48;100.00
30618;BME280;17384;51.214;9.202;2023-11-21T01:47:05;98077.03;;;5.46;100.00
30618;BME280;17384;51.214;9.202;2023-11-21T01:49:35;98066.44;;;5.38;100.00
30618;BME280;17384;51.214;9.202;2023-11-21T01:52:01;98075.34;;;5.38;100.00
30618;BME280;17384;51.214;9.202;2023-11-21T01:54:27;98078.00;;;5.32;100.00
30618;BME280;17384;51.214;9.202;2023-11-21T01:56:57;98083.19;;;5.33;100.00
30618;BME280;17384;51.214;9.202;2023-11-21T01:59:30;98082.56;;;5.31;100.00
30618;BME280;17384;51.214;9.202;2023-11-21T02:01:59;98075.25;;;5.19;100.00
30618;BME280;17384;51.214;9.202;2023-11-21T02:04:25;98075.66;;;5.22;100.00
30618;BME280;17384;51.214;9.202;2023-11-21T02:06:50;98089.31;;;5.21;100.00
30618;BME280;17384;51.214;9.202;2023-11-21T02:09:16;98103.56;;;5.15;100.00
30618;BME280;17384;51.214;9.202;2023-11-21T02:11:43;98097.50;;;5.06;100.00
30618;BME280;17384;51.214;9.202;2023-11-21T02:14:09;98100.19;;;5.06;100.00
30618;BME280;17384;51.214;9.202;2023-11-21T02:16:35;98085.78;;;5.14;100.00
30618;BME280;17384;51.214;9.202;2023-11-21T02:19:02;98092.19;;;5.13;100.00
30618;BME280;17384;51.214;9.202;2023-11-21T02:21:28;98094.91;;;5.19;100.00
30618;BME280;17384;51.214;9.202;2023-11-21T02:23:55;98095.31;;;5.16;100.00
30618;BME280;17384;51.214;9.202;2023-11-21T02:26:21;98092.63;;;5.23;100.00
30618;BME280;17384;51.214;9.202;2023-11-21T02:28:46;98084.59;;;5.29;100.00
30618;BME280;17384;51.214;9.202;2023-11-21T02:31:13;98094.13;;;5.32;100.00
30618;BME280;17384;51.214;9.202;2023-11-21T02:33:38;98087.94;;;5.31;100.00
30618;BME280;17384;51.214;9.202;2023-11-21T02:36:04;98080.94;;;5.37;100.00
30618;BME280;17384;51.214;9.202;2023-11-21T02:38:30;98089.44;;;5.40;100.00
30618;BME280;17384;51.214;9.202;2023-11-21T02:40:57;98080.88;;;5.30;100.00
30618;BME280;17384;51.214;9.202;2023-11-21T02:43:24;98086.22;;;5.24;100.00
30618;BME280;17384;51.214;9.202;2023-11-21T02:45:49;98099.88;;;5.22;100.00
30618;BME280;17384;51.214;9.202;2023-11-21T02:48:15;98089.72;;;5.18;100.00
30618;BME280;17384;51.214;9.202;2023-11-21T02:50:40;98080.66;;;5.19;100.00
30618;BME280;17384;51.214;9.202;2023-11-21T02:53:06;98091.16;;;5.20;100.00
30618;BME280;17384;51.214;9.202;2023-11-21T02:55:31;98107.53;;;5.19;100.00
30618;BME280;17384;51.214;9.202;2023-11-21T02:58:00;98101.13;;;5.20;100.00
30618;BME280;17384;51.214;9.202;2023-11-21T03:00:25;98101.47;;;5.10;100.00
30618;BME280;17384;51.214;9.202;2023-11-21T03:02:51;98111.09;;;4.98;100.00
30618;BME280;17384;51.214;9.202;2023-11-21T03:05:16;98111.28;;;4.96;100.00
30618;BME280;17384;51.214;9.202;2023-11-21T03:07:41;98105.56;;;5.06;100.00
30618;BME280;17384;51.214;9.202;2023-11-21T03:10:08;98113.44;;;5.07;100.00
30618;BME280;17384;51.214;9.202;2023-11-21T03:12:37;98104.94;;;5.04;100.00
30618;BME280;17384;51.214;9.202;2023-11-21T03:15:04;98109.88;;;5.00;100.00
30618;BME280;17384;51.214;9.202;2023-11-21T03:17:31;98115.88;;;5.02;100.00
30618;BME280;17384;51.214;9.202;2023-11-21T03:19:56;98123.31;;;5.00;100.00
30618;BME280;17384;51.214;9.202;2023-11-21T03:22:22;98117.91;;;4.94;100.00
30618;BME280;17384;51.214;9.202;2023-11-21T03:24:48;98120.38;;;4.95;100.00
30618;BME280;17384;51.214;9.202;2023-11-21T03:27:14;98121.00;;;4.91;100.00
30618;BME280;17384;51.214;9.202;2023-11-21T03:29:39;98113.34;;;4.94;100.00
30618;BME280;17384;51.214;9.202;2023-11-21T03:32:05;98110.84;;;4.93;100.00
30618;BME280;17384;51.214;9.202;2023-11-21T03:34:32;98124.91;;;4.88;100.00
30618;BME280;17384;51.214;9.202;2023-11-21T03:36:57;98129.53;;;4.73;100.00
30618;BME280;17384;51.214;9.202;2023-11-21T03:39:23;98139.91;;;4.76;100.00
30618;BME280;17384;51.214;9.202;2023-11-21T03:41:51;98124.78;;;4.75;100.00
30618;BME280;17384;51.214;9.202;2023-11-21T03:44:17;98127.22;;;4.70;100.00
30618;BME280;17384;51.214;9.202;2023-11-21T03:46:43;98127.28;;;4.76;100.00
30618;BME280;17384;51.214;9.202;2023-11-21T03:49:09;98125.56;;;4.69;100.00
30618;BME280;17384;51.214;9.202;2023-11-21T03:51:36;98125.53;;;4.62;100.00
30618;BME280;17384;51.214;9.202;2023-11-21T03:54:02;98128.81;;;4.36;100.00
30618;BME280;17384;51.214;9.202;2023-11-21T03:56:28;98128.59;;;4.38;100.00
30618;BME280;17384;51.214;9.202;2023-11-21T03:58:53;98130.69;;;4.36;100.00
30618;BME280;17384;51.214;9.202;2023-11-21T04:01:23;98130.22;;;4.32;100.00
30618;BME280;17384;51.214;9.202;2023-11-21T04:03:49;98129.34;;;4.25;100.00
30618;BME280;17384;51.214;9.202;2023-11-21T04:06:16;98135.84;;;4.16;100.00
30618;BME280;17384;51.214;9.202;2023-11-21T04:08:43;98132.84;;;4.04;100.00
30618;BME280;17384;51.214;9.202;2023-11-21T04:11:09;98146.84;;;4.00;100.00
30618;BME280;17384;51.214;9.202;2023-11-21T04:13:40;98140.34;;;4.09;100.00
30618;BME280;17384;51.214;9.202;2023-11-21T04:16:07;98137.06;;;4.14;100.00
30618;BME280;17384;51.214;9.202;2023-11-21T04:18:33;98154.19;;;4.13;100.00
30618;BME280;17384;51.214;9.202;2023-11-21T04:20:59;98161.28;;;3.99;100.00
30618;BME280;17384;51.214;9.202;2023-11-21T04:23:24;98165.44;;;4.01;100.00
30618;BME280;17384;51.214;9.202;2023-11-21T04:25:50;98161.47;;;3.97;100.00
30618;BME280;17384;51.214;9.202;2023-11-21T04:28:15;98171.63;;;4.02;100.00
30618;BME280;17384;51.214;9.202;2023-11-21T04:30:41;98160.25;;;4.00;100.00
30618;BME280;17384;51.214;9.202;2023-11-21T04:33:06;98176.44;;;3.92;100.00
30618;BME280;17384;51.214;9.202;2023-11-21T04:35:33;98174.00;;;3.61;100.00
30618;BME280;17384;51.214;9.202;2023-11-21T04:37:58;98174.78;;;3.55;100.00
30618;BME280;17384;51.214;9.202;2023-11-21T04:40:23;98168.66;;;3.46;100.00
30618;BME280;17384;51.214;9.202;2023-11-21T04:42:49;98174.22;;;3.45;100.00
30618;BME280;17384;51.214;9.202;2023-11-21T04:45:14;98185.69;;;3.38;100.00
30618;BME280;17384;51.214;9.202;2023-11-21T04:47:41;98188.44;;;3.30;100.00
30618;BME280;17384;51.214;9.202;2023-11-21T04:50:09;98195.94;;;3.35;100.00
30618;BME280;17384;51.214;9.202;2023-11-21T04:52:34;98189.94;;;3.33;100.00
30618;BME280;17384;51.214;9.202;2023-11-21T04:55:00;98191.41;;;3.35;100.00
30618;BME280;17384;51.214;9.202;2023-11-21T04:57:27;98208.44;;;3.43;100.00
30618;BME280;17384;51.214;9.202;2023-11-21T04:59:54;98211.28;;;3.56;100.00
30618;BME280;17384;51.214;9.202;2023-11-21T05:02:19;98215.72;;;3.63;100.00
30618;BME280;17384;51.214;9.202;2023-11-21T05:04:46;98214.59;;;3.72;100.00
30618;BME280;17384;51.214;9.202;2023-11-21T05:07:12;98214.69;;;3.79;100.00
30618;BME280;17384;51.214;9.202;2023-11-21T05:09:41;98216.56;;;3.79;100.00
30618;BME280;17384;51.214;9.202;2023-11-21T05:12:07;98226.69;;;3.83;100.00
30618;BME280;17384;51.214;9.202;2023-11-21T05:14:32;98224.22;;;3.82;100.00
30618;BME280;17384;51.214;9.202;2023-11-21T05:16:58;98223.81;;;3.85;100.00
30618;BME280;17384;51.214;9.202;2023-11-21T05:19:24;98221.69;;;3.95;100.00
30618;BME280;17384;51.214;9.202;2023-11-21T05:21:49;98223.63;;;4.01;100.00
30618;BME280;17384;51.214;9.202;2023-11-21T05:24:15;98227.81;;;4.03;100.00
30618;BME280;17384;51.214;9.202;2023-11-21T05:26:40;98234.84;;;4.04;100.00
30618;BME280;17384;51.214;9.202;2023-11-21T05:29:06;98240.75;;;4.00;100.00
30618;BME280;17384;51.214;9.202;2023-11-21T05:31:31;98249.56;;;3.94;100.00
30618;BME280;17384;51.214;9.202;2023-11-21T05:33:57;98257.59;;;3.94;100.00
30618;BME280;17384;51.214;9.202;2023-11-21T05:36:22;98243.81;;;3.97;100.00
30618;BME280;17384;51.214;9.202;2023-11-21T05:38:48;98256.78;;;4.08;100.00
30618;BME280;17384;51.214;9.202;2023-11-21T05:41:13;98258.81;;;4.06;100.00
30618;BME280;17384;51.214;9.202;2023-11-21T05:43:39;98258.22;;;4.11;100.00
30618;BME280;17384;51.214;9.202;2023-11-21T05:46:05;98259.44;;;4.08;100.00
30618;BME280;17384;51.214;9.202;2023-11-21T05:48:32;98251.00;;;4.11;100.00
30618;BME280;17384;51.214;9.202;2023-11-21T05:50:57;98259.31;;;4.16;100.00
30618;BME280;17384;51.214;9.202;2023-11-21T05:53:25;98254.22;;;4.21;100.00
30618;BME280;17384;51.214;9.202;2023-11-21T05:55:51;98260.88;;;4.25;100.00
30618;BME280;17384;51.214;9.202;2023-11-21T05:58:16;98262.75;;;4.25;100.00
30618;BME280;17384;51.214;9.202;2023-11-21T06:00:41;98267.72;;;4.28;100.00
30618;BME280;17384;51.214;9.202;2023-11-21T06:03:07;98273.38;;;4.33;100.00
30618;BME280;17384;51.214;9.202;2023-11-21T06:05:33;98275.50;;;4.37;100.00
30618;BME280;17384;51.214;9.202;2023-11-21T06:07:59;98281.38;;;4.48;100.00
30618;BME280;17384;51.214;9.202;2023-11-21T06:10:26;98277.66;;;4.49;100.00
30618;BME280;17384;51.214;9.202;2023-11-21T06:12:52;98287.50;;;4.41;100.00
30618;BME280;17384;51.214;9.202;2023-11-21T06:15:18;98284.81;;;4.41;100.00
30618;BME280;17384;51.214;9.202;2023-11-21T06:17:48;98285.81;;;4.55;100.00
30618;BME280;17384;51.214;9.202;2023-11-21T06:20:20;98280.34;;;4.85;100.00
30618;BME280;17384;51.214;9.202;2023-11-21T06:22:47;98293.03;;;4.97;100.00
30618;BME280;17384;51.214;9.202;2023-11-21T06:25:13;98280.22;;;5.21;100.00
30618;BME280;17384;51.214;9.202;2023-11-21T06:27:42;98293.28;;;5.79;100.00
30618;BME280;17384;51.214;9.202;2023-11-21T06:30:08;98292.94;;;6.24;100.00
30618;BME280;17384;51.214;9.202;2023-11-21T06:32:35;98299.59;;;6.34;100.00
30618;BME280;17384;51.214;9.202;2023-11-21T06:35:05;98302.09;;;6.36;100.00
30618;BME280;17384;51.214;9.202;2023-11-21T06:37:31;98295.84;;;6.22;100.00
30618;BME280;17384;51.214;9.202;2023-11-21T06:39:57;98301.44;;;5.58;100.00
30618;BME280;17384;51.214;9.202;2023-11-21T06:42:23;98294.13;;;5.52;100.00
30618;BME280;17384;51.214;9.202;2023-11-21T06:44:49;98295.84;;;6.22;100.00
30618;BME280;17384;51.214;9.202;2023-11-21T06:47:17;98306.06;;;6.40;100.00
30618;BME280;17384;51.214;9.202;2023-11-21T06:49:43;98304.03;;;6.49;100.00
30618;BME280;17384;51.214;9.202;2023-11-21T06:52:08;98297.09;;;6.26;100.00
30618;BME280;17384;51.214;9.202;2023-11-21T06:54:34;98291.97;;;5.97;100.00
30618;BME280;17384;51.214;9.202;2023-11-21T06:57:00;98307.00;;;5.57;100.00
30618;BME280;17384;51.214;9.202;2023-11-21T06:59:25;98307.84;;;5.57;100.00
30618;BME280;17384;51.214;9.202;2023-11-21T07:01:51;98318.09;;;5.47;100.00
30618;BME280;17384;51.214;9.202;2023-11-21T07:04:17;98324.66;;;5.38;100.00
30618;BME280;17384;51.214;9.202;2023-11-21T07:06:43;98315.94;;;5.36;100.00
30618;BME280;17384;51.214;9.202;2023-11-21T07:09:09;98325.50;;;5.38;100.00
30618;BME280;17384;51.214;9.202;2023-11-21T07:11:37;98333.75;;;5.37;100.00
30618;BME280;17384;51.214;9.202;2023-11-21T07:14:04;98333.38;;;5.40;100.00
30618;BME280;17384;51.214;9.202;2023-11-21T07:16:36;98343.09;;;5.41;100.00
30618;BME280;17384;51.214;9.202;2023-11-21T07:19:06;98346.25;;;5.44;100.00
30618;BME280;17384;51.214;9.202;2023-11-21T07:21:35;98341.50;;;5.47;100.00
30618;BME280;17384;51.214;9.202;2023-11-21T07:24:02;98343.75;;;5.43;100.00
30618;BME280;17384;51.214;9.202;2023-11-21T07:26:28;98341.88;;;5.43;100.00
30618;BME280;17384;51.214;9.202;2023-11-21T07:28:53;98354.31;;;5.44;100.00
30618;BME280;17384;51.214;9.202;2023-11-21T07:31:19;98349.63;;;5.32;100.00
30618;BME280;17384;51.214;9.202;2023-11-21T07:33:48;98356.75;;;5.39;100.00
30618;BME280;17384;51.214;9.202;2023-11-21T07:36:14;98371.28;;;5.45;100.00
30618;BME280;17384;51.214;9.202;2023-11-21T07:38:39;98374.56;;;5.40;100.00
30618;BME280;17384;51.214;9.202;2023-11-21T07:41:05;98372.69;;;5.41;100.00
30618;BME280;17384;51.214;9.202;2023-11-21T07:43:34;98366.50;;;5.47;100.00
30618;BME280;17384;51.214;9.202;2023-11-21T07:46:04;98369.06;;;5.55;100.00
30618;BME280;17384;51.214;9.202;2023-11-21T07:48:33;98379.91;;;5.62;100.00
30618;BME280;17384;51.214;9.202;2023-11-21T07:50:59;98387.00;;;5.69;100.00
30618;BME280;17384;51.214;9.202;2023-11-21T07:53:25;98373.38;;;5.77;100.00
30618;BME280;17384;51.214;9.202;2023-11-21T07:55:51;98373.16;;;5.94;100.00
30618;BME280;17384;51.214;9.202;2023-11-21T07:58:17;98384.63;;;6.09;100.00
30618;BME280;17384;51.214;9.202;2023-11-21T08:00:43;98388.19;;;6.16;100.00
30618;BME280;17384;51.214;9.202;2023-11-21T08:03:09;98390.56;;;6.26;100.00
30618;BME280;17384;51.214;9.202;2023-11-21T08:05:34;98395.13;;;6.32;100.00
30618;BME280;17384;51.214;9.202;2023-11-21T08:07:59;98395.75;;;6.27;100.00
30618;BME280;17384;51.214;9.202;2023-11-21T08:10:25;98393.44;;;6.24;100.00
30618;BME280;17384;51.214;9.202;2023-11-21T08:12:51;98396.59;;;6.34;100.00
30618;BME280;17384;51.214;9.202;2023-11-21T08:15:16;98402.91;;;6.48;100.00
30618;BME280;17384;51.214;9.202;2023-11-21T08:17:42;98408.53;;;6.60;100.00
30618;BME280;17384;51.214;9.202;2023-11-21T08:20:08;98416.50;;;6.74;100.00
30618;BME280;17384;51.214;9.202;2023-11-21T08:22:36;98408.44;;;6.81;100.00
30618;BME280;17384;51.214;9.202;2023-11-21T08:25:02;98417.97;;;6.77;100.00
30618;BME280;17384;51.214;9.202;2023-11-21T08:27:29;98410.84;;;6.63;100.00
30618;BME280;17384;51.214;9.202;2023-11-21T08:29:54;98427.09;;;6.76;100.00
30618;BME280;17384;51.214;9.202;2023-11-21T08:32:21;98424.63;;;6.81;100.00
30618;BME280;17384;51.214;9.202;2023-11-21T08:34:47;98440.00;;;6.94;100.00
30618;BME280;17384;51.214;9.202;2023-11-21T08:37:16;98426.16;;;7.03;100.00
30618;BME280;17384;51.214;9.202;2023-11-21T08:39:41;98424.69;;;7.01;100.00
30618;BME280;17384;51.214;9.202;2023-11-21T08:42:07;98428.63;;;6.98;100.00
30618;BME280;17384;51.214;9.202;2023-11-21T08:44:33;98422.38;;;6.91;100.00
30618;BME280;17384;51.214;9.202;2023-11-21T08:46:58;98425.09;;;6.98;100.00
30618;BME280;17384;51.214;9.202;2023-11-21T08:49:24;98415.19;;;7.05;100.00
30618;BME280;17384;51.214;9.202;2023-11-21T08:51:51;98427.44;;;7.07;100.00
30618;BME280;17384;51.214;9.202;2023-11-21T08:54:16;98428.00;;;6.96;100.00
30618;BME280;17384;51.214;9.202;2023-11-21T08:56:43;98429.84;;;6.96;100.00
30618;BME280;17384;51.214;9.202;2023-11-21T08:59:08;98425.09;;;6.98;100.00
30618;BME280;17384;51.214;9.202;2023-11-21T09:01:34;98439.25;;;7.06;100.00
30618;BME280;17384;51.214;9.202;2023-11-21T09:03:59;98442.50;;;6.95;100.00
30618;BME280;17384;51.214;9.202;2023-11-21T09:06:25;98447.34;;;7.06;100.00
30618;BME280;17384;51.214;9.202;2023-11-21T09:08:50;98442.16;;;7.05;100.00
30618;BME280;17384;51.214;9.202;2023-11-21T09:11:17;98444.25;;;7.09;100.00
30618;BME280;17384;51.214;9.202;2023-11-21T09:13:42;98448.41;;;7.19;100.00
30618;BME280;17384;51.214;9.202;2023-11-21T09:16:08;98450.66;;;7.15;100.00
30618;BME280;17384;51.214;9.202;2023-11-21T09:18:34;98453.53;;;7.00;100.00
30618;BME280;17384;51.214;9.202;2023-11-21T09:20:59;98458.72;;;7.02;100.00
30618;BME280;17384;51.214;9.202;2023-11-21T09:23:25;98463.44;;;6.93;100.00
30618;BME280;17384;51.214;9.202;2023-11-21T09:25:50;98466.19;;;7.00;100.00
30618;BME280;17384;51.214;9.202;2023-11-21T09:28:17;98450.03;;;7.13;100.00
30618;BME280;17384;51.214;9.202;2023-11-21T09:30:43;98470.41;;;7.22;100.00
30618;BME280;17384;51.214;9.202;2023-11-21T09:33:09;98463.78;;;7.25;100.00
30618;BME280;17384;51.214;9.202;2023-11-21T09:35:37;98461.72;;;7.27;100.00
30618;BME280;17384;51.214;9.202;2023-11-21T09:38:03;98472.34;;;7.35;100.00
30618;BME280;17384;51.214;9.202;2023-11-21T09:40:35;98467.56;;;7.37;100.00
30618;BME280;17384;51.214;9.202;2023-11-21T09:43:06;98476.28;;;7.39;100.00
30618;BME280;17384;51.214;9.202;2023-11-21T09:45:38;98479.59;;;7.41;100.00
30618;BME280;17384;51.214;9.202;2023-11-21T09:48:05;98481.06;;;7.43;100.00
30618;BME280;17384;51.214;9.202;2023-11-21T09:50:32;98476.28;;;7.45;100.00
30618;BME280;17384;51.214;9.202;2023-11-21T09:53:17;98476.31;;;7.52;100.00
30618;BME280;17384;51.214;9.202;2023-11-21T09:55:46;98477.34;;;7.51;100.00
30618;BME280;17384;51.214;9.202;2023-11-21T09:58:14;98489.59;;;7.47;100.00
30618;BME280;17384;51.214;9.202;2023-11-21T10:00:44;98493.31;;;7.46;100.00
30618;BME280;17384;51.214;9.202;2023-11-21T10:03:11;98487.06;;;7.39;100.00
30618;BME280;17384;51.214;9.202;2023-11-21T10:05:37;98493.31;;;7.46;100.00
30618;BME280;17384;51.214;9.202;2023-11-21T10:08:10;98492.09;;;7.48;100.00
30618;BME280;17384;51.214;9.202;2023-11-21T10:10:46;98486.69;;;7.48;100.00
30618;BME280;17384;51.214;9.202;2023-11-21T10:13:14;98500.16;;;7.42;100.00
30618;BME280;17384;51.214;9.202;2023-11-21T10:15:43;98494.97;;;7.34;100.00
30618;BME280;17384;51.214;9.202;2023-11-21T10:18:14;98501.19;;;7.41;100.00
30618;BME280;17384;51.214;9.202;2023-11-21T10:20:43;98502.84;;;7.35;100.00
30618;BME280;17384;51.214;9.202;2023-11-21T10:23:09;98501.19;;;7.34;100.00
30618;BME280;17384;51.214;9.202;2023-11-21T10:25:37;98498.53;;;7.47;100.00
30618;BME280;17384;51.214;9.202;2023-11-21T10:28:03;98509.13;;;7.56;100.00
30618;BME280;17384;51.214;9.202;2023-11-21T10:30:35;98499.19;;;7.56;100.00
30618;BME280;17384;51.214;9.202;2023-11-21T10:33:06;98507.09;;;7.64;100.00
30618;BME280;17384;51.214;9.202;2023-11-21T10:35:59;98509.38;;;7.74;100.00
30618;BME280;17384;51.214;9.202;2023-11-21T10:38:26;98502.09;;;7.61;100.00
30618;BME280;17384;51.214;9.202;2023-11-21T10:40:54;98511.25;;;7.73;100.00
30618;BME280;17384;51.214;9.202;2023-11-21T10:43:24;98508.38;;;7.81;100.00
30618;BME280;17384;51.214;9.202;2023-11-21T10:45:50;98512.53;;;7.91;100.00
30618;BME280;17384;51.214;9.202;2023-11-21T10:48:15;98510.47;;;7.99;100.00
30618;BME280;17384;51.214;9.202;2023-11-21T10:50:42;98497.56;;;8.01;100.00
30618;BME280;17384;51.214;9.202;2023-11-21T10:53:08;98505.69;;;8.01;100.00
30618;BME280;17384;51.214;9.202;2023-11-21T10:55:34;98520.44;;;8.25;100.00
30618;BME280;17384;51.214;9.202;2023-11-21T10:58:02;98517.53;;;8.27;100.00
30618;BME280;17384;51.214;9.202;2023-11-21T11:00:29;98513.81;;;8.28;100.00
30618;BME280;17384;51.214;9.202;2023-11-21T11:02:55;98512.56;;;8.30;100.00
30618;BME280;17384;51.214;9.202;2023-11-21T11:05:23;98522.75;;;8.15;100.00
30618;BME280;17384;51.214;9.202;2023-11-21T11:08:11;98517.75;;;8.32;100.00
30618;BME280;17384;51.214;9.202;2023-11-21T11:10:38;98515.50;;;8.42;100.00
30618;BME280;17384;51.214;9.202;2023-11-21T11:13:04;98516.31;;;8.49;100.00
30618;BME280;17384;51.214;9.202;2023-11-21T11:15:31;98515.31;;;8.43;100.00
30618;BME280;17384;51.214;9.202;2023-11-21T11:17:57;98518.59;;;8.26;100.00
30618;BME280;17384;51.214;9.202;2023-11-21T11:20:24;98521.28;;;8.06;100.00
30618;BME280;17384;51.214;9.202;2023-11-21T11:28:08;98525.41;;;7.89;100.00
30618;BME280;17384;51.214;9.202;2023-11-21T11:36:31;98531.19;;;7.66;100.00
30618;BME280;17384;51.214;9.202;2023-11-21T11:38:59;98529.50;;;7.58;100.00
30618;BME280;17384;51.214;9.202;2023-11-21T11:41:29;98533.88;;;7.66;100.00
30618;BME280;17384;51.214;9.202;2023-11-21T11:43:58;98522.06;;;7.73;100.00
30618;BME280;17384;51.214;9.202;2023-11-21T11:46:41;98529.53;;;7.65;100.00
30618;BME280;17384;51.214;9.202;2023-11-21T11:49:07;98531.78;;;7.68;100.00
30618;BME280;17384;51.214;9.202;2023-11-21T11:51:33;98527.03;;;7.70;100.00
30618;BME280;17384;51.214;9.202;2023-11-21T11:54:01;98529.31;;;7.73;100.00
30618;BME280;17384;51.214;9.202;2023-11-21T11:56:31;98522.41;;;7.51;100.00
30618;BME280;17384;51.214;9.202;2023-11-21T11:59:01;98532.16;;;7.52;100.00
30618;BME280;17384;51.214;9.202;2023-11-21T12:01:34;98531.06;;;7.39;100.00
30618;BME280;17384;51.214;9.202;2023-11-21T12:06:52;98546.25;;;7.47;100.00
30618;BME280;17384;51.214;9.202;2023-11-21T12:09:22;98543.97;;;7.37;100.00
30618;BME280;17384;51.214;9.202;2023-11-21T12:11:49;98542.66;;;7.27;100.00
30618;BME280;17384;51.214;9.202;2023-11-21T12:14:15;98545.59;;;7.32;100.00
30618;BME280;17384;51.214;9.202;2023-11-21T12:16:42;98551.59;;;7.27;100.00
30618;BME280;17384;51.214;9.202;2023-11-21T12:19:09;98546.81;;;7.29;100.00
30618;BME280;17384;51.214;9.202;2023-11-21T12:21:36;98552.19;;;7.23;100.00
30618;BME280;17384;51.214;9.202;2023-11-21T12:24:02;98554.31;;;7.34;100.00
30618;BME280;17384;51.214;9.202;2023-11-21T12:26:28;98559.88;;;7.26;100.00
30618;BME280;17384;51.214;9.202;2023-11-21T12:28:54;98560.31;;;7.29;100.00
30618;BME280;17384;51.214;9.202;2023-11-21T12:31:23;98570.25;;;7.22;100.00
30618;BME280;17384;51.214;9.202;2023-11-21T12:33:48;98556.06;;;7.13;100.00
30618;BME280;17384;51.214;9.202;2023-11-21T12:36:15;98563.97;;;7.08;100.00
30618;BME280;17384;51.214;9.202;2023-11-21T12:38:41;98562.28;;;7.07;100.00
30618;BME280;17384;51.214;9.202;2023-11-21T12:41:07;98568.50;;;7.08;100.00
30618;BME280;17384;51.214;9.202;2023-11-21T12:43:33;98561.47;;;7.13;100.00
30618;BME280;17384;51.214;9.202;2023-11-21T12:46:10;98560.81;;;7.05;100.00
30618;BME280;17384;51.214;9.202;2023-11-21T12:48:39;98565.78;;;7.01;100.00
30618;BME280;17384;51.214;9.202;2023-11-21T12:51:09;98576.31;;;6.96;100.00
30618;BME280;17384;51.214;9.202;2023-11-21T12:53:40;98580.81;;;6.89;100.00
30618;BME280;17384;51.214;9.202;2023-11-21T12:56:13;98586.41;;;6.81;100.00
30618;BME280;17384;51.214;9.202;2023-11-21T12:58:39;98587.19;;;6.75;100.00
30618;BME280;17384;51.214;9.202;2023-11-21T13:01:07;98592.97;;;6.72;100.00
30618;BME280;17384;51.214;9.202;2023-11-21T13:03:39;98597.50;;;6.71;100.00
30618;BME280;17384;51.214;9.202;2023-11-21T13:06:06;98596.47;;;6.72;100.00
30618;BME280;17384;51.214;9.202;2023-11-21T13:08:33;98600.00;;;6.73;100.00
30618;BME280;17384;51.214;9.202;2023-11-21T13:10:59;98598.72;;;6.69;100.00
30618;BME280;17384;51.214;9.202;2023-11-21T13:13:28;98598.78;;;6.75;100.00